sensor_id;sensor_type;location;lat;lon;timestamp;P1;durP1;ratioP1;P2;durP2;ratioP2
69386;SDS011;56575;48.942;8.404;2022-07-12T00:00:44;5.35;;;3.30;;
69386;SDS011;56575;48.942;8.404;2022-07-12T00:03:10;4.40;;;3.63;;
69386;SDS011;56575;48.942;8.404;2022-07-12T00:05:36;6.05;;;3.22;;
69386;SDS011;56575;48.942;8.404;2022-07-12T00:08:03;4.30;;;3.00;;
69386;SDS011;56575;48.942;8.404;2022-07-12T00:10:29;4.10;;;3.28;;
69386;SDS011;56575;48.942;8.404;2022-07-12T00:12:54;6.33;;;2.97;;
69386;SDS011;56575;48.942;8.404;2022-07-12T00:15:20;4.68;;;3.20;;
69386;SDS011;56575;48.942;8.404;2022-07-12T00:17:46;5.03;;;2.92;;
69386;SDS011;56575;48.942;8.404;2022-07-12T00:20:11;3.40;;;2.60;;
69386;SDS011;56575;48.942;8.404;2022-07-12T00:22:37;4.13;;;2.60;;
69386;SDS011;56575;48.942;8.404;2022-07-12T00:25:02;4.83;;;3.10;;
69386;SDS011;56575;48.942;8.404;2022-07-12T00:27:28;5.07;;;3.03;;
69386;SDS011;56575;48.942;8.404;2022-07-12T00:29:54;4.83;;;2.90;;
69386;SDS011;56575;48.942;8.404;2022-07-12T00:32:19;4.45;;;2.85;;
69386;SDS011;56575;48.942;8.404;2022-07-12T00:34:45;3.57;;;2.43;;
69386;SDS011;56575;48.942;8.404;2022-07-12T00:37:10;3.03;;;2.20;;
69386;SDS011;56575;48.942;8.404;2022-07-12T00:39:35;3.80;;;2.37;;
69386;SDS011;56575;48.942;8.404;2022-07-12T00:42:01;4.70;;;2.20;;
69386;SDS011;56575;48.942;8.404;2022-07-12T00:44:26;4.73;;;2.50;;
69386;SDS011;56575;48.942;8.404;2022-07-12T00:46:52;3.00;;;2.37;;
69386;SDS011;56575;48.942;8.404;2022-07-12T00:49:17;4.30;;;2.15;;
69386;SDS011;56575;48.942;8.404;2022-07-12T00:51:43;4.50;;;2.50;;
69386;SDS011;56575;48.942;8.404;2022-07-12T00:54:09;3.67;;;2.23;;
69386;SDS011;56575;48.942;8.404;2022-07-12T00:56:35;3.63;;;2.72;;
69386;SDS011;56575;48.942;8.404;2022-07-12T00:59:02;9.25;;;3.40;;
69386;SDS011;56575;48.942;8.404;2022-07-12T01:01:28;3.92;;;2.88;;
69386;SDS011;56575;48.942;8.404;2022-07-12T01:03:53;4.17;;;3.20;;
69386;SDS011;56575;48.942;8.404;2022-07-12T01:06:19;4.60;;;3.03;;
69386;SDS011;56575;48.942;8.404;2022-07-12T01:08:45;3.93;;;3.03;;
69386;SDS011;56575;48.942;8.404;2022-07-12T01:11:11;5.05;;;2.78;;
69386;SDS011;56575;48.942;8.404;2022-07-12T01:13:37;4.77;;;2.70;;
69386;SDS011;56575;48.942;8.404;2022-07-12T01:16:02;4.10;;;3.07;;
69386;SDS011;56575;48.942;8.404;2022-07-12T01:18:29;4.90;;;3.00;;
69386;SDS011;56575;48.942;8.404;2022-07-12T01:20:55;4.93;;;2.50;;
69386;SDS011;56575;48.942;8.404;2022-07-12T01:23:22;3.55;;;2.53;;
69386;SDS011;56575;48.942;8.404;2022-07-12T01:25:49;5.95;;;3.10;;
69386;SDS011;56575;48.942;8.404;2022-07-12T01:28:14;3.90;;;2.90;;
69386;SDS011;56575;48.942;8.404;2022-07-12T01:30:40;5.83;;;2.97;;
69386;SDS011;56575;48.942;8.404;2022-07-12T01:33:06;4.93;;;3.08;;
69386;SDS011;56575;48.942;8.404;2022-07-12T01:35:31;4.27;;;2.80;;
69386;SDS011;56575;48.942;8.404;2022-07-12T01:37:58;3.88;;;2.80;;
69386;SDS011;56575;48.942;8.404;2022-07-12T01:40:23;4.22;;;2.97;;
69386;SDS011;56575;48.942;8.404;2022-07-12T01:42:49;4.00;;;2.63;;
69386;SDS011;56575;48.942;8.404;2022-07-12T01:45:16;2.80;;;2.40;;
69386;SDS011;56575;48.942;8.404;2022-07-12T01:47:41;4.75;;;2.83;;
69386;SDS011;56575;48.942;8.404;2022-07-12T01:50:08;4.33;;;2.67;;
69386;SDS011;56575;48.942;8.404;2022-07-12T01:52:35;5.03;;;2.88;;
69386;SDS011;56575;48.942;8.404;2022-07-12T01:55:01;3.10;;;2.50;;
69386;SDS011;56575;48.942;8.404;2022-07-12T01:57:27;5.05;;;2.95;;
69386;SDS011;56575;48.942;8.404;2022-07-12T01:59:53;5.60;;;2.53;;
69386;SDS011;56575;48.942;8.404;2022-07-12T02:02:18;5.10;;;2.57;;
69386;SDS011;56575;48.942;8.404;2022-07-12T02:04:44;4.77;;;2.77;;
69386;SDS011;56575;48.942;8.404;2022-07-12T02:07:09;4.93;;;3.20;;
69386;SDS011;56575;48.942;8.404;2022-07-12T02:09:35;4.33;;;2.90;;
69386;SDS011;56575;48.942;8.404;2022-07-12T02:12:00;3.70;;;2.50;;
69386;SDS011;56575;48.942;8.404;2022-07-12T02:14:25;4.43;;;2.33;;
69386;SDS011;56575;48.942;8.404;2022-07-12T02:16:51;3.60;;;2.60;;
69386;SDS011;56575;48.942;8.404;2022-07-12T02:19:17;3.33;;;2.33;;
69386;SDS011;56575;48.942;8.404;2022-07-12T02:21:42;5.30;;;2.77;;
69386;SDS011;56575;48.942;8.404;2022-07-12T02:24:08;4.00;;;2.67;;
69386;SDS011;56575;48.942;8.404;2022-07-12T02:26:34;3.40;;;2.60;;
69386;SDS011;56575;48.942;8.404;2022-07-12T02:29:03;4.30;;;2.90;;
69386;SDS011;56575;48.942;8.404;2022-07-12T02:31:29;4.10;;;2.50;;
69386;SDS011;56575;48.942;8.404;2022-07-12T02:33:54;5.40;;;2.60;;
69386;SDS011;56575;48.942;8.404;2022-07-12T02:36:20;3.37;;;2.60;;
69386;SDS011;56575;48.942;8.404;2022-07-12T02:38:45;3.05;;;2.28;;
69386;SDS011;56575;48.942;8.404;2022-07-12T02:41:10;4.07;;;2.57;;
69386;SDS011;56575;48.942;8.404;2022-07-12T02:43:36;3.30;;;2.50;;
69386;SDS011;56575;48.942;8.404;2022-07-12T02:46:05;4.23;;;2.70;;
69386;SDS011;56575;48.942;8.404;2022-07-12T02:48:35;3.47;;;2.60;;
69386;SDS011;56575;48.942;8.404;2022-07-12T02:51:01;6.28;;;2.78;;
69386;SDS011;56575;48.942;8.404;2022-07-12T02:53:27;4.15;;;2.50;;
69386;SDS011;56575;48.942;8.404;2022-07-12T02:55:53;3.27;;;2.57;;
69386;SDS011;56575;48.942;8.404;2022-07-12T02:58:18;5.95;;;2.70;;
69386;SDS011;56575;48.942;8.404;2022-07-12T03:00:44;4.40;;;3.00;;
69386;SDS011;56575;48.942;8.404;2022-07-12T03:03:10;4.20;;;2.73;;
69386;SDS011;56575;48.942;8.404;2022-07-12T03:05:35;5.47;;;2.92;;
69386;SDS011;56575;48.942;8.404;2022-07-12T03:08:05;4.57;;;2.80;;
69386;SDS011;56575;48.942;8.404;2022-07-12T03:10:31;4.25;;;2.78;;
69386;SDS011;56575;48.942;8.404;2022-07-12T03:12:56;4.93;;;2.90;;
69386;SDS011;56575;48.942;8.404;2022-07-12T03:15:22;4.93;;;2.77;;
69386;SDS011;56575;48.942;8.404;2022-07-12T03:17:47;3.60;;;2.83;;
69386;SDS011;56575;48.942;8.404;2022-07-12T03:20:13;4.90;;;2.93;;
69386;SDS011;56575;48.942;8.404;2022-07-12T03:22:40;7.10;;;3.08;;
69386;SDS011;56575;48.942;8.404;2022-07-12T03:25:06;4.85;;;3.08;;
69386;SDS011;56575;48.942;8.404;2022-07-12T03:27:32;4.10;;;2.70;;
69386;SDS011;56575;48.942;8.404;2022-07-12T03:29:57;3.90;;;2.73;;
69386;SDS011;56575;48.942;8.404;2022-07-12T03:32:23;4.13;;;3.00;;
69386;SDS011;56575;48.942;8.404;2022-07-12T03:34:50;5.40;;;3.35;;
69386;SDS011;56575;48.942;8.404;2022-07-12T03:37:15;3.70;;;2.80;;
69386;SDS011;56575;48.942;8.404;2022-07-12T03:39:41;5.25;;;2.80;;
69386;SDS011;56575;48.942;8.404;2022-07-12T03:42:06;4.10;;;2.70;;
69386;SDS011;56575;48.942;8.404;2022-07-12T03:44:31;4.63;;;2.90;;
69386;SDS011;56575;48.942;8.404;2022-07-12T03:46:58;5.72;;;2.88;;
69386;SDS011;56575;48.942;8.404;2022-07-12T03:49:24;4.82;;;2.88;;
69386;SDS011;56575;48.942;8.404;2022-07-12T03:51:49;4.20;;;3.00;;
69386;SDS011;56575;48.942;8.404;2022-07-12T03:54:15;3.90;;;2.73;;
69386;SDS011;56575;48.942;8.404;2022-07-12T03:56:40;4.03;;;3.00;;
69386;SDS011;56575;48.942;8.404;2022-07-12T03:59:24;5.05;;;3.17;;
69386;SDS011;56575;48.942;8.404;2022-07-12T04:01:49;4.73;;;3.00;;
69386;SDS011;56575;48.942;8.404;2022-07-12T04:04:15;3.73;;;2.70;;
69386;SDS011;56575;48.942;8.404;2022-07-12T04:06:40;4.88;;;3.15;;
69386;SDS011;56575;48.942;8.404;2022-07-12T04:09:06;4.80;;;3.10;;
69386;SDS011;56575;48.942;8.404;2022-07-12T04:11:31;3.73;;;2.83;;
69386;SDS011;56575;48.942;8.404;2022-07-12T04:13:57;4.65;;;2.92;;
69386;SDS011;56575;48.942;8.404;2022-07-12T04:16:23;4.20;;;2.60;;
69386;SDS011;56575;48.942;8.404;2022-07-12T04:18:49;5.30;;;3.07;;
69386;SDS011;56575;48.942;8.404;2022-07-12T04:21:14;5.68;;;2.97;;
69386;SDS011;56575;48.942;8.404;2022-07-12T04:23:40;3.53;;;2.60;;
69386;SDS011;56575;48.942;8.404;2022-07-12T04:26:05;5.13;;;3.10;;
69386;SDS011;56575;48.942;8.404;2022-07-12T04:28:30;3.67;;;3.10;;
69386;SDS011;56575;48.942;8.404;2022-07-12T04:30:56;4.18;;;3.10;;
69386;SDS011;56575;48.942;8.404;2022-07-12T04:33:21;5.27;;;2.87;;
69386;SDS011;56575;48.942;8.404;2022-07-12T04:35:47;4.30;;;3.23;;
69386;SDS011;56575;48.942;8.404;2022-07-12T04:38:12;5.77;;;3.03;;
69386;SDS011;56575;48.942;8.404;2022-07-12T04:40:37;4.93;;;3.17;;
69386;SDS011;56575;48.942;8.404;2022-07-12T04:43:03;4.30;;;3.27;;
69386;SDS011;56575;48.942;8.404;2022-07-12T04:45:28;5.00;;;3.30;;
69386;SDS011;56575;48.942;8.404;2022-07-12T04:47:54;4.67;;;3.07;;
69386;SDS011;56575;48.942;8.404;2022-07-12T04:50:19;3.92;;;2.90;;
69386;SDS011;56575;48.942;8.404;2022-07-12T04:52:44;4.87;;;3.10;;
69386;SDS011;56575;48.942;8.404;2022-07-12T04:55:10;5.53;;;3.10;;
69386;SDS011;56575;48.942;8.404;2022-07-12T04:57:37;3.72;;;2.70;;
69386;SDS011;56575;48.942;8.404;2022-07-12T05:00:06;4.33;;;2.93;;
69386;SDS011;56575;48.942;8.404;2022-07-12T05:02:32;3.88;;;2.95;;
69386;SDS011;56575;48.942;8.404;2022-07-12T05:04:58;4.00;;;2.92;;
69386;SDS011;56575;48.942;8.404;2022-07-12T05:07:24;4.77;;;3.00;;
69386;SDS011;56575;48.942;8.404;2022-07-12T05:09:49;4.25;;;3.13;;
69386;SDS011;56575;48.942;8.404;2022-07-12T05:12:16;5.30;;;3.17;;
69386;SDS011;56575;48.942;8.404;2022-07-12T05:14:42;4.43;;;3.28;;
69386;SDS011;56575;48.942;8.404;2022-07-12T05:17:07;3.90;;;2.83;;
69386;SDS011;56575;48.942;8.404;2022-07-12T05:19:32;6.23;;;2.87;;
69386;SDS011;56575;48.942;8.404;2022-07-12T05:21:58;5.13;;;3.05;;
69386;SDS011;56575;48.942;8.404;2022-07-12T05:24:23;5.10;;;3.10;;
69386;SDS011;56575;48.942;8.404;2022-07-12T05:26:48;4.73;;;2.63;;
69386;SDS011;56575;48.942;8.404;2022-07-12T05:29:14;4.60;;;3.10;;
69386;SDS011;56575;48.942;8.404;2022-07-12T05:31:39;5.73;;;3.30;;
69386;SDS011;56575;48.942;8.404;2022-07-12T05:34:05;3.88;;;2.80;;
69386;SDS011;56575;48.942;8.404;2022-07-12T05:36:30;4.40;;;2.80;;
69386;SDS011;56575;48.942;8.404;2022-07-12T05:38:56;8.33;;;3.30;;
69386;SDS011;56575;48.942;8.404;2022-07-12T05:41:21;6.10;;;2.50;;
69386;SDS011;56575;48.942;8.404;2022-07-12T05:43:46;4.60;;;2.57;;
69386;SDS011;56575;48.942;8.404;2022-07-12T05:46:12;4.03;;;2.73;;
69386;SDS011;56575;48.942;8.404;2022-07-12T05:48:38;5.17;;;2.77;;
69386;SDS011;56575;48.942;8.404;2022-07-12T05:51:03;5.82;;;3.05;;
69386;SDS011;56575;48.942;8.404;2022-07-12T05:53:48;4.90;;;2.58;;
69386;SDS011;56575;48.942;8.404;2022-07-12T05:56:14;4.70;;;2.60;;
69386;SDS011;56575;48.942;8.404;2022-07-12T05:58:39;3.63;;;2.50;;
69386;SDS011;56575;48.942;8.404;2022-07-12T06:01:05;3.30;;;2.53;;
69386;SDS011;56575;48.942;8.404;2022-07-12T06:03:32;4.07;;;2.75;;
69386;SDS011;56575;48.942;8.404;2022-07-12T06:05:57;3.90;;;2.80;;
69386;SDS011;56575;48.942;8.404;2022-07-12T06:08:23;4.57;;;2.90;;
69386;SDS011;56575;48.942;8.404;2022-07-12T06:10:48;4.83;;;2.77;;
69386;SDS011;56575;48.942;8.404;2022-07-12T06:13:14;4.17;;;2.63;;
69386;SDS011;56575;48.942;8.404;2022-07-12T06:15:40;3.97;;;2.70;;
69386;SDS011;56575;48.942;8.404;2022-07-12T06:18:05;2.50;;;2.00;;
69386;SDS011;56575;48.942;8.404;2022-07-12T06:20:31;3.25;;;2.00;;
69386;SDS011;56575;48.942;8.404;2022-07-12T06:22:56;4.07;;;2.13;;
69386;SDS011;56575;48.942;8.404;2022-07-12T06:25:22;4.93;;;1.90;;
69386;SDS011;56575;48.942;8.404;2022-07-12T06:27:48;2.78;;;1.90;;
69386;SDS011;56575;48.942;8.404;2022-07-12T06:30:17;2.40;;;1.60;;
69386;SDS011;56575;48.942;8.404;2022-07-12T06:32:47;4.27;;;1.73;;
69386;SDS011;56575;48.942;8.404;2022-07-12T06:35:13;2.28;;;1.73;;
69386;SDS011;56575;48.942;8.404;2022-07-12T06:37:39;1.90;;;1.50;;
69386;SDS011;56575;48.942;8.404;2022-07-12T06:40:06;2.80;;;1.70;;
69386;SDS011;56575;48.942;8.404;2022-07-12T06:42:32;3.00;;;1.83;;
69386;SDS011;56575;48.942;8.404;2022-07-12T06:44:58;2.10;;;1.50;;
69386;SDS011;56575;48.942;8.404;2022-07-12T06:47:27;2.13;;;1.35;;
69386;SDS011;56575;48.942;8.404;2022-07-12T06:49:52;3.07;;;1.30;;
69386;SDS011;56575;48.942;8.404;2022-07-12T06:52:18;2.00;;;1.48;;
69386;SDS011;56575;48.942;8.404;2022-07-12T06:54:44;2.13;;;1.43;;
69386;SDS011;56575;48.942;8.404;2022-07-12T06:57:09;3.13;;;1.30;;
69386;SDS011;56575;48.942;8.404;2022-07-12T06:59:35;2.37;;;1.20;;
69386;SDS011;56575;48.942;8.404;2022-07-12T07:02:01;2.00;;;1.20;;
69386;SDS011;56575;48.942;8.404;2022-07-12T07:04:27;15.57;;;1.20;;
69386;SDS011;56575;48.942;8.404;2022-07-12T07:06:53;1.20;;;0.98;;
69386;SDS011;56575;48.942;8.404;2022-07-12T07:09:18;1.40;;;0.80;;
69386;SDS011;56575;48.942;8.404;2022-07-12T07:11:44;3.13;;;0.93;;
69386;SDS011;56575;48.942;8.404;2022-07-12T07:14:09;1.23;;;0.70;;
69386;SDS011;56575;48.942;8.404;2022-07-12T07:16:35;1.10;;;0.70;;
69386;SDS011;56575;48.942;8.404;2022-07-12T07:19:00;0.90;;;0.60;;
69386;SDS011;56575;48.942;8.404;2022-07-12T07:21:26;1.93;;;0.80;;
69386;SDS011;56575;48.942;8.404;2022-07-12T07:23:52;2.17;;;0.90;;
69386;SDS011;56575;48.942;8.404;2022-07-12T07:26:18;1.00;;;0.53;;
69386;SDS011;56575;48.942;8.404;2022-07-12T07:28:43;0.90;;;0.77;;
69386;SDS011;56575;48.942;8.404;2022-07-12T07:31:27;1.23;;;0.50;;
69386;SDS011;56575;48.942;8.404;2022-07-12T07:33:52;0.77;;;0.40;;
69386;SDS011;56575;48.942;8.404;2022-07-12T07:36:18;0.80;;;0.57;;
69386;SDS011;56575;48.942;8.404;2022-07-12T07:38:43;2.97;;;0.60;;
69386;SDS011;56575;48.942;8.404;2022-07-12T07:41:09;1.20;;;0.70;;
69386;SDS011;56575;48.942;8.404;2022-07-12T07:43:35;1.00;;;0.60;;
69386;SDS011;56575;48.942;8.404;2022-07-12T07:46:00;1.20;;;0.73;;
69386;SDS011;56575;48.942;8.404;2022-07-12T07:48:35;1.10;;;0.88;;
69386;SDS011;56575;48.942;8.404;2022-07-12T07:51:12;1.05;;;0.70;;
69386;SDS011;56575;48.942;8.404;2022-07-12T07:53:44;0.95;;;0.70;;
69386;SDS011;56575;48.942;8.404;2022-07-12T07:56:13;1.15;;;0.70;;
69386;SDS011;56575;48.942;8.404;2022-07-12T07:59:02;1.60;;;0.63;;
69386;SDS011;56575;48.942;8.404;2022-07-12T08:01:32;1.58;;;0.98;;
69386;SDS011;56575;48.942;8.404;2022-07-12T08:04:14;1.67;;;0.60;;
69386;SDS011;56575;48.942;8.404;2022-07-12T08:06:49;0.85;;;0.70;;
69386;SDS011;56575;48.942;8.404;2022-07-12T08:09:15;1.75;;;0.70;;
69386;SDS011;56575;48.942;8.404;2022-07-12T08:11:41;1.00;;;0.57;;
69386;SDS011;56575;48.942;8.404;2022-07-12T08:14:11;0.77;;;0.60;;
69386;SDS011;56575;48.942;8.404;2022-07-12T08:16:39;1.67;;;0.50;;
69386;SDS011;56575;48.942;8.404;2022-07-12T08:19:04;2.53;;;0.70;;
69386;SDS011;56575;48.942;8.404;2022-07-12T08:21:30;1.73;;;0.52;;
69386;SDS011;56575;48.942;8.404;2022-07-12T08:23:55;1.07;;;0.60;;
69386;SDS011;56575;48.942;8.404;2022-07-12T08:26:21;1.57;;;0.60;;
69386;SDS011;56575;48.942;8.404;2022-07-12T08:28:50;0.65;;;0.50;;
69386;SDS011;56575;48.942;8.404;2022-07-12T08:31:16;0.60;;;0.50;;
69386;SDS011;56575;48.942;8.404;2022-07-12T08:33:41;1.23;;;0.67;;
69386;SDS011;56575;48.942;8.404;2022-07-12T08:36:07;1.25;;;0.80;;
69386;SDS011;56575;48.942;8.404;2022-07-12T08:38:33;1.63;;;0.40;;
69386;SDS011;56575;48.942;8.404;2022-07-12T08:41:05;0.88;;;0.50;;
69386;SDS011;56575;48.942;8.404;2022-07-12T08:43:34;2.67;;;0.70;;
69386;SDS011;56575;48.942;8.404;2022-07-12T08:46:06;1.15;;;0.73;;
69386;SDS011;56575;48.942;8.404;2022-07-12T08:48:41;1.70;;;0.70;;
69386;SDS011;56575;48.942;8.404;2022-07-12T08:51:12;1.70;;;0.70;;
69386;SDS011;56575;48.942;8.404;2022-07-12T08:53:47;1.02;;;0.63;;
69386;SDS011;56575;48.942;8.404;2022-07-12T08:56:34;1.95;;;0.75;;
69386;SDS011;56575;48.942;8.404;2022-07-12T08:59:08;2.70;;;0.73;;
69386;SDS011;56575;48.942;8.404;2022-07-12T09:01:52;1.30;;;0.73;;
69386;SDS011;56575;48.942;8.404;2022-07-12T09:04:25;1.03;;;0.60;;
69386;SDS011;56575;48.942;8.404;2022-07-12T09:06:55;1.35;;;0.60;;
69386;SDS011;56575;48.942;8.404;2022-07-12T09:09:27;1.00;;;0.80;;
69386;SDS011;56575;48.942;8.404;2022-07-12T09:12:21;1.47;;;0.90;;
69386;SDS011;56575;48.942;8.404;2022-07-12T09:14:52;2.50;;;1.33;;
69386;SDS011;56575;48.942;8.404;2022-07-12T09:17:23;1.02;;;0.73;;
69386;SDS011;56575;48.942;8.404;2022-07-12T09:19:56;2.25;;;0.65;;
69386;SDS011;56575;48.942;8.404;2022-07-12T09:22:25;1.85;;;0.77;;
69386;SDS011;56575;48.942;8.404;2022-07-12T09:24:50;0.70;;;0.60;;
69386;SDS011;56575;48.942;8.404;2022-07-12T09:27:23;2.67;;;0.65;;
69386;SDS011;56575;48.942;8.404;2022-07-12T09:30:11;1.63;;;0.67;;
69386;SDS011;56575;48.942;8.404;2022-07-12T09:32:52;0.90;;;0.60;;
69386;SDS011;56575;48.942;8.404;2022-07-12T09:41:09;3.50;;;0.70;;
69386;SDS011;56575;48.942;8.404;2022-07-12T09:44:13;1.73;;;0.70;;
69386;SDS011;56575;48.942;8.404;2022-07-12T09:46:38;2.42;;;0.75;;
69386;SDS011;56575;48.942;8.404;2022-07-12T09:49:07;1.02;;;0.60;;
69386;SDS011;56575;48.942;8.404;2022-07-12T09:51:52;3.20;;;0.60;;
69386;SDS011;56575;48.942;8.404;2022-07-12T09:54:22;2.15;;;0.70;;
69386;SDS011;56575;48.942;8.404;2022-07-12T09:56:57;1.63;;;0.70;;
69386;SDS011;56575;48.942;8.404;2022-07-12T09:59:40;0.82;;;0.60;;
69386;SDS011;56575;48.942;8.404;2022-07-12T10:02:10;0.90;;;0.50;;
69386;SDS011;56575;48.942;8.404;2022-07-12T10:04:46;1.27;;;0.65;;
69386;SDS011;56575;48.942;8.404;2022-07-12T10:07:18;1.05;;;0.80;;
69386;SDS011;56575;48.942;8.404;2022-07-12T10:09:46;1.80;;;0.60;;
69386;SDS011;56575;48.942;8.404;2022-07-12T10:15:09;0.80;;;0.60;;
69386;SDS011;56575;48.942;8.404;2022-07-12T10:18:02;1.63;;;0.60;;
69386;SDS011;56575;48.942;8.404;2022-07-12T10:20:30;0.68;;;0.50;;
69386;SDS011;56575;48.942;8.404;2022-07-12T10:22:58;0.50;;;0.40;;
69386;SDS011;56575;48.942;8.404;2022-07-12T10:25:42;0.85;;;0.50;;
69386;SDS011;56575;48.942;8.404;2022-07-12T10:28:08;0.82;;;0.70;;
69386;SDS011;56575;48.942;8.404;2022-07-12T10:30:54;3.70;;;0.83;;
69386;SDS011;56575;48.942;8.404;2022-07-12T10:33:24;2.72;;;0.70;;
69386;SDS011;56575;48.942;8.404;2022-07-12T10:35:59;0.98;;;0.68;;
69386;SDS011;56575;48.942;8.404;2022-07-12T10:38:26;0.90;;;0.60;;
69386;SDS011;56575;48.942;8.404;2022-07-12T10:40:52;1.77;;;0.60;;
69386;SDS011;56575;48.942;8.404;2022-07-12T10:43:22;1.52;;;0.60;;
69386;SDS011;56575;48.942;8.404;2022-07-12T10:46:19;0.70;;;0.60;;
69386;SDS011;56575;48.942;8.404;2022-07-12T10:48:46;1.50;;;0.70;;
69386;SDS011;56575;48.942;8.404;2022-07-12T10:51:16;1.08;;;0.50;;
69386;SDS011;56575;48.942;8.404;2022-07-12T10:53:48;0.93;;;0.50;;
69386;SDS011;56575;48.942;8.404;2022-07-12T10:56:22;1.92;;;0.60;;
69386;SDS011;56575;48.942;8.404;2022-07-12T10:58:51;1.40;;;0.50;;
69386;SDS011;56575;48.942;8.404;2022-07-12T11:01:24;2.55;;;0.73;;
69386;SDS011;56575;48.942;8.404;2022-07-12T11:04:12;3.58;;;0.77;;
69386;SDS011;56575;48.942;8.404;2022-07-12T11:06:37;1.52;;;0.70;;
69386;SDS011;56575;48.942;8.404;2022-07-12T11:09:05;0.65;;;0.60;;
69386;SDS011;56575;48.942;8.404;2022-07-12T11:14:08;3.58;;;0.80;;
69386;SDS011;56575;48.942;8.404;2022-07-12T11:16:42;2.33;;;0.63;;
69386;SDS011;56575;48.942;8.404;2022-07-12T11:19:09;2.35;;;0.50;;
69386;SDS011;56575;48.942;8.404;2022-07-12T11:21:35;0.73;;;0.50;;
69386;SDS011;56575;48.942;8.404;2022-07-12T11:24:01;0.63;;;0.53;;
69386;SDS011;56575;48.942;8.404;2022-07-12T11:26:27;0.60;;;0.60;;
69386;SDS011;56575;48.942;8.404;2022-07-12T11:28:57;0.88;;;0.60;;
69386;SDS011;56575;48.942;8.404;2022-07-12T11:31:24;1.25;;;0.60;;
69386;SDS011;56575;48.942;8.404;2022-07-12T11:33:50;1.10;;;0.70;;
69386;SDS011;56575;48.942;8.404;2022-07-12T11:36:16;0.83;;;0.60;;
69386;SDS011;56575;48.942;8.404;2022-07-12T11:38:42;1.17;;;0.50;;
69386;SDS011;56575;48.942;8.404;2022-07-12T11:41:10;3.10;;;0.60;;
69386;SDS011;56575;48.942;8.404;2022-07-12T11:43:37;1.00;;;0.70;;
69386;SDS011;56575;48.942;8.404;2022-07-12T11:46:03;1.20;;;0.60;;
69386;SDS011;56575;48.942;8.404;2022-07-12T11:48:30;1.33;;;0.60;;
69386;SDS011;56575;48.942;8.404;2022-07-12T11:51:02;1.00;;;0.70;;
69386;SDS011;56575;48.942;8.404;2022-07-12T11:53:32;1.23;;;0.63;;
69386;SDS011;56575;48.942;8.404;2022-07-12T11:56:00;0.65;;;0.60;;
69386;SDS011;56575;48.942;8.404;2022-07-12T11:58:27;2.73;;;0.90;;
69386;SDS011;56575;48.942;8.404;2022-07-12T12:00:55;0.65;;;0.65;;
69386;SDS011;56575;48.942;8.404;2022-07-12T12:03:21;1.92;;;0.60;;
69386;SDS011;56575;48.942;8.404;2022-07-12T12:05:47;1.42;;;0.77;;
69386;SDS011;56575;48.942;8.404;2022-07-12T12:08:18;0.85;;;0.60;;
69386;SDS011;56575;48.942;8.404;2022-07-12T12:10:52;0.93;;;0.60;;
69386;SDS011;56575;48.942;8.404;2022-07-12T12:13:25;0.80;;;0.73;;
69386;SDS011;56575;48.942;8.404;2022-07-12T12:15:55;1.45;;;0.60;;
69386;SDS011;56575;48.942;8.404;2022-07-12T12:18:38;1.58;;;0.60;;
69386;SDS011;56575;48.942;8.404;2022-07-12T12:23:31;0.90;;;0.40;;
69386;SDS011;56575;48.942;8.404;2022-07-12T12:31:14;1.38;;;0.70;;
69386;SDS011;56575;48.942;8.404;2022-07-12T12:33:42;2.35;;;0.77;;
69386;SDS011;56575;48.942;8.404;2022-07-12T12:36:25;0.70;;;0.70;;
69386;SDS011;56575;48.942;8.404;2022-07-12T12:41:19;0.98;;;0.88;;
69386;SDS011;56575;48.942;8.404;2022-07-12T12:43:47;1.05;;;0.60;;
69386;SDS011;56575;48.942;8.404;2022-07-12T12:46:21;0.80;;;0.70;;
69386;SDS011;56575;48.942;8.404;2022-07-12T12:48:47;3.47;;;0.80;;
69386;SDS011;56575;48.942;8.404;2022-07-12T12:51:12;0.70;;;0.57;;
69386;SDS011;56575;48.942;8.404;2022-07-12T12:53:39;2.78;;;0.70;;
69386;SDS011;56575;48.942;8.404;2022-07-12T12:56:10;0.77;;;0.70;;
69386;SDS011;56575;48.942;8.404;2022-07-12T12:58:37;0.90;;;0.70;;
69386;SDS011;56575;48.942;8.404;2022-07-12T13:01:04;0.57;;;0.50;;
69386;SDS011;56575;48.942;8.404;2022-07-12T13:03:30;0.80;;;0.60;;
69386;SDS011;56575;48.942;8.404;2022-07-12T13:05:56;0.50;;;0.50;;
69386;SDS011;56575;48.942;8.404;2022-07-12T13:08:22;0.60;;;0.60;;
69386;SDS011;56575;48.942;8.404;2022-07-12T13:10:48;1.67;;;0.70;;
69386;SDS011;56575;48.942;8.404;2022-07-12T13:13:35;2.45;;;0.75;;
69386;SDS011;56575;48.942;8.404;2022-07-12T13:16:02;0.88;;;0.70;;
69386;SDS011;56575;48.942;8.404;2022-07-12T13:18:27;0.47;;;0.40;;
69386;SDS011;56575;48.942;8.404;2022-07-12T13:20:53;2.25;;;0.93;;
69386;SDS011;56575;48.942;8.404;2022-07-12T13:23:18;1.40;;;0.70;;
69386;SDS011;56575;48.942;8.404;2022-07-12T13:25:43;1.63;;;0.70;;
69386;SDS011;56575;48.942;8.404;2022-07-12T13:28:09;1.73;;;0.57;;
69386;SDS011;56575;48.942;8.404;2022-07-12T13:30:36;1.27;;;0.70;;
69386;SDS011;56575;48.942;8.404;2022-07-12T13:33:02;0.77;;;0.57;;
69386;SDS011;56575;48.942;8.404;2022-07-12T13:35:28;0.70;;;0.67;;
69386;SDS011;56575;48.942;8.404;2022-07-12T13:37:54;3.20;;;0.60;;
69386;SDS011;56575;48.942;8.404;2022-07-12T13:40:20;1.70;;;0.60;;
69386;SDS011;56575;48.942;8.404;2022-07-12T13:42:48;1.17;;;0.60;;
69386;SDS011;56575;48.942;8.404;2022-07-12T13:45:14;0.75;;;0.55;;
69386;SDS011;56575;48.942;8.404;2022-07-12T13:47:50;0.95;;;0.65;;
69386;SDS011;56575;48.942;8.404;2022-07-12T13:50:16;1.58;;;0.70;;
69386;SDS011;56575;48.942;8.404;2022-07-12T13:52:45;3.03;;;1.00;;
69386;SDS011;56575;48.942;8.404;2022-07-12T13:55:12;1.67;;;0.70;;
69386;SDS011;56575;48.942;8.404;2022-07-12T13:57:38;1.17;;;1.08;;
69386;SDS011;56575;48.942;8.404;2022-07-12T14:00:10;2.45;;;0.80;;
69386;SDS011;56575;48.942;8.404;2022-07-12T14:02:38;3.00;;;0.70;;
69386;SDS011;56575;48.942;8.404;2022-07-12T14:05:06;2.72;;;0.85;;
69386;SDS011;56575;48.942;8.404;2022-07-12T14:07:33;1.10;;;0.60;;
69386;SDS011;56575;48.942;8.404;2022-07-12T14:09:59;0.88;;;0.70;;
69386;SDS011;56575;48.942;8.404;2022-07-12T14:12:25;1.10;;;0.65;;
69386;SDS011;56575;48.942;8.404;2022-07-12T14:14:51;1.70;;;0.80;;
69386;SDS011;56575;48.942;8.404;2022-07-12T14:17:35;1.65;;;0.70;;
69386;SDS011;56575;48.942;8.404;2022-07-12T14:20:00;2.13;;;0.80;;
69386;SDS011;56575;48.942;8.404;2022-07-12T14:22:27;0.90;;;0.73;;
69386;SDS011;56575;48.942;8.404;2022-07-12T14:24:53;2.92;;;1.45;;
69386;SDS011;56575;48.942;8.404;2022-07-12T14:27:18;1.93;;;0.50;;
69386;SDS011;56575;48.942;8.404;2022-07-12T14:29:44;1.37;;;0.70;;
69386;SDS011;56575;48.942;8.404;2022-07-12T14:32:09;1.70;;;0.70;;
69386;SDS011;56575;48.942;8.404;2022-07-12T14:34:35;2.40;;;0.80;;
69386;SDS011;56575;48.942;8.404;2022-07-12T14:37:00;0.80;;;0.60;;
69386;SDS011;56575;48.942;8.404;2022-07-12T14:39:26;1.42;;;1.10;;
69386;SDS011;56575;48.942;8.404;2022-07-12T14:41:52;1.40;;;0.80;;
69386;SDS011;56575;48.942;8.404;2022-07-12T14:44:17;0.70;;;0.70;;
69386;SDS011;56575;48.942;8.404;2022-07-12T14:46:44;3.63;;;0.90;;
69386;SDS011;56575;48.942;8.404;2022-07-12T14:49:10;0.98;;;0.60;;
69386;SDS011;56575;48.942;8.404;2022-07-12T14:51:35;1.33;;;0.70;;
69386;SDS011;56575;48.942;8.404;2022-07-12T14:54:01;3.80;;;0.77;;
69386;SDS011;56575;48.942;8.404;2022-07-12T14:56:26;0.93;;;0.70;;
69386;SDS011;56575;48.942;8.404;2022-07-12T14:58:51;1.83;;;0.93;;
69386;SDS011;56575;48.942;8.404;2022-07-12T15:01:17;1.10;;;0.83;;
69386;SDS011;56575;48.942;8.404;2022-07-12T15:03:43;0.98;;;0.70;;
69386;SDS011;56575;48.942;8.404;2022-07-12T15:06:09;1.20;;;0.70;;
69386;SDS011;56575;48.942;8.404;2022-07-12T15:08:34;0.77;;;0.63;;
69386;SDS011;56575;48.942;8.404;2022-07-12T15:11:00;0.90;;;0.57;;
69386;SDS011;56575;48.942;8.404;2022-07-12T15:13:28;0.70;;;0.60;;